Jur'Evec, Russia
Current Conditions -  °F | °C
As of 4:30 PM on Thursday 30 Oct 2014 (Local Time) from UWGG Reporting Station
Broken Clouds Broken Clouds  
Wind Chill: 41°   Ceiling: 10000
Heat Index: 41°   Visibility: 4mi
Dew Point: 28°   Wind: 0mph
Humidity: 61%   Direction: NA
Pressure: 30.15"   Gusts: NA
Location:  57.33°N, 43.12°E
Report Text: UWGG 301330Z 00000MPS 6000 FEW050 BKN100 05/M02 Q1021 NOSIG18090060 RMK QFE759
Loading
Personal Weather Stations






























Interactive Weather Map
Tropical Storm Tracking
New forecast layout! Learn more

10-Day Weather Forecast

Advertisements
Track Severe Weather on mobile